createdAt,value
2018-12-04T00:00:49.995Z,63.89
2018-12-04T00:01:49.900Z,63.23
2018-12-04T00:02:49.817Z,63.42
2018-12-04T00:03:49.703Z,63.51
2018-12-04T00:04:49.616Z,63.17
2018-12-04T00:05:49.513Z,63.45
2018-12-04T00:06:49.413Z,63.64
2018-12-04T00:07:49.330Z,63.54
2018-12-04T00:08:49.217Z,64.02
2018-12-04T00:09:49.119Z,64.18
2018-12-04T00:10:49.022Z,63.92
2018-12-04T00:11:48.928Z,64.21
2018-12-04T00:12:48.845Z,63.92
2018-12-04T00:13:48.732Z,64.11
2018-12-04T00:14:48.633Z,64.11
2018-12-04T00:15:48.537Z,64.50
2018-12-04T00:16:48.440Z,64.59
2018-12-04T00:17:48.359Z,65.06
2018-12-04T00:18:48.244Z,64.50
2018-12-04T00:19:48.147Z,64.50
2018-12-04T00:20:48.049Z,64.40
2018-12-04T00:21:47.952Z,64.40
2018-12-04T00:22:47.875Z,64.59
2018-12-04T00:23:47.756Z,64.46
2018-12-04T00:24:47.660Z,64.78
2018-12-04T00:25:47.565Z,64.87
2018-12-04T00:26:47.464Z,64.87
2018-12-04T00:27:47.384Z,65.16
2018-12-04T00:28:47.271Z,64.59
2018-12-04T00:29:47.173Z,64.87
2018-12-04T00:30:47.076Z,64.87
2018-12-04T00:31:46.979Z,64.59
2018-12-04T00:32:46.896Z,64.87
2018-12-04T00:33:46.784Z,65.06
2018-12-04T00:34:46.688Z,64.97
2018-12-04T00:35:46.588Z,64.87
2018-12-04T00:36:46.492Z,64.87
2018-12-04T00:37:46.409Z,65.25
2018-12-04T00:38:46.297Z,64.87
2018-12-04T00:39:46.201Z,64.97
2018-12-04T00:40:46.105Z,64.40
2018-12-04T00:41:46.008Z,64.69
2018-12-04T00:42:45.926Z,64.69
2018-12-04T00:43:45.815Z,64.40
2018-12-04T00:44:45.714Z,64.02
2018-12-04T00:45:45.619Z,64.21
2018-12-04T00:46:45.522Z,64.40
2018-12-04T00:47:45.458Z,64.02
2018-12-04T00:48:45.323Z,63.64
2018-12-04T00:49:45.237Z,63.07
2018-12-04T00:50:45.129Z,63.45
2018-12-04T00:51:45.032Z,63.17
2018-12-04T00:52:44.955Z,62.97
2018-12-04T00:53:44.838Z,62.97
2018-12-04T00:54:44.742Z,62.78
2018-12-04T00:55:44.642Z,62.30
2018-12-04T00:56:44.549Z,62.12
2018-12-04T00:57:44.468Z,62.21
2018-12-04T00:58:44.352Z,62.21
2018-12-04T00:59:44.254Z,62.21
2018-12-04T01:00:44.157Z,62.30
2018-12-04T01:01:44.063Z,62.12
2018-12-04T01:02:43.979Z,62.30
2018-12-04T01:03:43.865Z,62.49
2018-12-04T01:04:43.769Z,62.02
2018-12-04T01:05:43.673Z,62.49
2018-12-04T01:06:43.592Z,62.30
2018-12-04T01:07:43.492Z,62.88
2018-12-04T01:08:43.381Z,63.17
2018-12-04T01:09:43.282Z,62.69
2018-12-04T01:10:43.186Z,62.97
2018-12-04T01:11:43.087Z,62.69
2018-12-04T01:12:43.012Z,63.54
2018-12-04T01:13:42.893Z,63.26
2018-12-04T01:14:42.798Z,64.11
2018-12-04T01:15:42.800Z,64.87
2018-12-04T01:16:42.603Z,65.16
2018-12-04T01:17:42.523Z,65.73
2018-12-04T01:18:42.409Z,65.54
2018-12-04T01:19:42.312Z,65.54
2018-12-04T01:20:42.213Z,65.64
2018-12-04T01:21:42.118Z,65.73
2018-12-04T01:22:42.139Z,65.06
2018-12-04T01:23:41.923Z,65.64
2018-12-04T01:24:41.824Z,65.25
2018-12-04T01:25:41.726Z,65.73
2018-12-04T01:26:41.658Z,65.45
2018-12-04T01:27:41.553Z,66.20
2018-12-04T01:28:41.438Z,66.87
2018-12-04T01:29:41.445Z,66.78
2018-12-04T01:30:41.241Z,66.87
2018-12-04T01:31:41.143Z,66.87
2018-12-04T01:32:41.064Z,67.44
2018-12-04T01:33:40.950Z,67.44
2018-12-04T01:34:40.852Z,68.21
2018-12-04T01:35:40.756Z,68.49
2018-12-04T01:36:40.677Z,68.36
2018-12-04T01:37:40.577Z,69.44
2018-12-04T01:38:40.463Z,69.35
2018-12-04T01:39:40.367Z,69.63
2018-12-04T01:40:40.267Z,69.02
2018-12-04T01:41:40.172Z,69.92
2018-12-04T01:42:40.094Z,70.68
2018-12-04T01:43:39.975Z,70.49
2018-12-04T01:44:39.879Z,70.39
2018-12-04T01:45:39.784Z,70.68
2018-12-04T01:46:39.686Z,70.30
2018-12-04T01:47:39.588Z,70.39
2018-12-04T01:48:39.508Z,71.06
2018-12-04T01:49:39.393Z,71.15
2018-12-04T01:50:39.296Z,71.72
2018-12-04T01:51:39.199Z,71.44
2018-12-04T01:52:39.104Z,71.72
2018-12-04T01:53:39.020Z,71.06
2018-12-04T01:54:38.908Z,71.25
2018-12-04T01:55:38.809Z,70.97
2018-12-04T01:56:38.710Z,70.97
2018-12-04T01:57:38.618Z,70.74
2018-12-04T01:58:38.533Z,70.77
2018-12-04T01:59:38.418Z,70.87
2018-12-04T02:00:38.323Z,71.12
2018-12-04T02:01:38.226Z,71.02
2018-12-04T02:02:38.128Z,70.74
2018-12-04T02:03:38.045Z,71.06
2018-12-04T02:04:37.934Z,71.15
2018-12-04T02:05:37.836Z,71.63
2018-12-04T02:06:37.738Z,71.15
2018-12-04T02:07:37.638Z,71.02
2018-12-04T02:08:37.563Z,71.69
2018-12-04T02:09:37.446Z,71.53
2018-12-04T02:10:37.349Z,71.91
2018-12-04T02:11:37.252Z,71.22
2018-12-04T02:12:37.156Z,71.78
2018-12-04T02:13:37.076Z,71.41
2018-12-04T02:14:36.963Z,72.16
2018-12-04T02:15:36.865Z,71.69
2018-12-04T02:16:36.765Z,72.16
2018-12-04T02:17:36.668Z,72.35
2018-12-04T02:18:36.587Z,72.77
2018-12-04T02:19:36.783Z,72.49
2018-12-04T02:20:36.378Z,72.74
2018-12-04T02:21:36.284Z,72.74
2018-12-04T02:22:36.184Z,72.55
2018-12-04T02:23:36.100Z,72.55
2018-12-04T02:24:35.987Z,72.74
2018-12-04T02:25:35.906Z,72.83
2018-12-04T02:26:35.895Z,72.55
2018-12-04T02:27:35.695Z,72.35
2018-12-04T02:28:35.614Z,72.74
2018-12-04T02:29:35.502Z,72.92
2018-12-04T02:30:35.403Z,72.86
2018-12-04T02:31:35.305Z,73.78
2018-12-04T02:32:35.209Z,73.34
2018-12-04T02:33:35.241Z,73.63
2018-12-04T02:34:35.017Z,73.78
2018-12-04T02:35:34.920Z,74.29
2018-12-04T02:36:34.819Z,73.44
2018-12-04T02:37:34.722Z,73.63
2018-12-04T02:38:34.641Z,73.82
2018-12-04T02:39:34.630Z,73.34
2018-12-04T02:40:34.432Z,73.63
2018-12-04T02:41:34.332Z,74.26
2018-12-04T02:42:34.236Z,73.91
2018-12-04T02:43:34.155Z,73.63
2018-12-04T02:44:34.041Z,73.59
2018-12-04T02:45:33.943Z,73.59
2018-12-04T02:46:33.847Z,73.78
2018-12-04T02:47:33.748Z,73.69
2018-12-04T02:48:33.668Z,73.88
2018-12-04T02:49:33.556Z,73.59
2018-12-04T02:50:33.464Z,74.10
2018-12-04T02:51:33.409Z,73.88
2018-12-04T02:52:33.264Z,73.34
2018-12-04T02:53:33.186Z,73.72
2018-12-04T02:54:33.085Z,73.49
2018-12-04T02:55:32.971Z,74.01
2018-12-04T02:56:32.879Z,73.78
2018-12-04T02:57:32.788Z,74.07
2018-12-04T02:58:32.698Z,74.07
2018-12-04T02:59:32.585Z,73.78
2018-12-04T03:00:32.485Z,74.07
2018-12-04T03:01:32.388Z,73.82
2018-12-04T03:02:32.292Z,73.91
2018-12-04T03:03:32.213Z,73.49
2018-12-04T03:04:32.097Z,73.44
2018-12-04T03:05:31.999Z,73.40
2018-12-04T03:06:31.903Z,73.30
2018-12-04T03:07:31.805Z,72.92
2018-12-04T03:08:31.723Z,73.15
2018-12-04T03:09:31.609Z,72.64
2018-12-04T03:10:31.514Z,72.92
2018-12-04T03:11:31.418Z,72.45
2018-12-04T03:12:31.318Z,72.55
2018-12-04T03:13:31.238Z,72.55
2018-12-04T03:14:31.124Z,72.55
2018-12-04T03:15:31.026Z,72.26
2018-12-04T03:16:30.932Z,72.77
2018-12-04T03:17:30.833Z,72.96
2018-12-04T03:18:31.218Z,72.77
2018-12-04T03:19:30.636Z,72.16
2018-12-04T03:20:30.537Z,72.16
2018-12-04T03:21:30.442Z,72.16
2018-12-04T03:22:30.350Z,71.59
2018-12-04T03:23:30.266Z,72.26
2018-12-04T03:24:30.152Z,71.91
2018-12-04T03:25:30.060Z,71.78
2018-12-04T03:26:29.965Z,71.97
2018-12-04T03:27:29.862Z,71.97
2018-12-04T03:28:29.763Z,72.20
2018-12-04T03:29:29.681Z,71.91
2018-12-04T03:30:29.569Z,72.26
2018-12-04T03:31:29.471Z,72.26
2018-12-04T03:32:29.376Z,72.26
2018-12-04T03:33:29.280Z,72.83
2018-12-04T03:34:29.197Z,72.35
2018-12-04T03:35:29.077Z,72.58
2018-12-04T03:36:28.984Z,72.67
2018-12-04T03:37:28.886Z,72.45
2018-12-04T03:38:28.792Z,73.34
2018-12-04T03:39:28.706Z,73.25
2018-12-04T03:40:28.597Z,73.63
2018-12-04T03:41:28.495Z,73.34
2018-12-04T03:42:28.399Z,73.63
2018-12-04T03:43:28.312Z,73.82
2018-12-04T03:44:28.220Z,73.40
2018-12-04T03:45:28.108Z,73.21
2018-12-04T03:46:28.012Z,73.63
2018-12-04T03:47:27.911Z,72.86
2018-12-04T03:48:27.815Z,73.15
2018-12-04T03:49:27.737Z,72.92
2018-12-04T03:50:27.633Z,73.15
2018-12-04T03:51:27.523Z,72.74
2018-12-04T03:52:27.426Z,73.06
2018-12-04T03:53:27.327Z,72.35
2018-12-04T03:54:27.248Z,72.39
2018-12-04T03:55:27.132Z,72.07
2018-12-04T03:56:27.137Z,72.55
2018-12-04T03:57:26.939Z,72.07
2018-12-04T03:58:26.841Z,72.55
2018-12-04T03:59:26.758Z,71.97
2018-12-04T04:00:26.645Z,72.55
2018-12-04T04:01:26.551Z,72.35
2018-12-04T04:02:26.449Z,72.64
2018-12-04T04:03:26.358Z,72.86
2018-12-04T04:04:26.271Z,72.07
2018-12-04T04:05:26.157Z,71.78
2018-12-04T04:06:26.063Z,72.49
2018-12-04T04:07:25.960Z,72.16
2018-12-04T04:08:25.866Z,72.83
2018-12-04T04:09:25.783Z,72.64
2018-12-04T04:10:25.775Z,72.55
2018-12-04T04:11:25.575Z,72.45
2018-12-04T04:12:26.260Z,72.39
2018-12-04T04:13:25.380Z,72.74
2018-12-04T04:14:25.301Z,72.83
2018-12-04T04:15:25.183Z,72.55
2018-12-04T04:16:25.086Z,72.83
2018-12-04T04:17:25.096Z,72.55
2018-12-04T04:18:24.891Z,72.45
2018-12-04T04:19:24.811Z,73.02
2018-12-04T04:20:24.696Z,73.30
2018-12-04T04:21:24.599Z,73.21
2018-12-04T04:22:24.502Z,73.97
2018-12-04T04:23:24.403Z,74.07
2018-12-04T04:24:24.431Z,74.07
2018-12-04T04:25:24.212Z,74.16
2018-12-04T04:26:24.112Z,73.69
2018-12-04T04:27:24.016Z,74.26
2018-12-04T04:28:23.923Z,74.16
2018-12-04T04:29:23.834Z,74.07
2018-12-04T04:30:23.724Z,73.97
2018-12-04T04:31:23.723Z,73.97
2018-12-04T04:32:23.526Z,74.16
2018-12-04T04:33:23.427Z,74.54
2018-12-04T04:34:23.346Z,74.26
2018-12-04T04:35:23.232Z,74.63
2018-12-04T04:36:23.135Z,74.63
2018-12-04T04:37:23.037Z,74.07
2018-12-04T04:38:23.048Z,74.54
2018-12-04T04:39:22.860Z,74.16
2018-12-04T04:40:22.747Z,73.97
2018-12-04T04:41:22.646Z,74.16
2018-12-04T04:42:22.549Z,74.92
2018-12-04T04:43:22.452Z,74.35
2018-12-04T04:44:22.371Z,74.54
2018-12-04T04:45:22.355Z,74.77
2018-12-04T04:46:22.164Z,74.58
2018-12-04T04:47:22.065Z,74.16
2018-12-04T04:48:21.965Z,74.54
2018-12-04T04:49:21.884Z,74.54
2018-12-04T04:50:21.800Z,74.01
2018-12-04T04:51:21.696Z,74.44
2018-12-04T04:52:21.698Z,74.07
2018-12-04T04:53:21.477Z,74.26
2018-12-04T04:54:21.393Z,73.97
2018-12-04T04:55:21.284Z,74.16
2018-12-04T04:56:21.183Z,74.07
2018-12-04T04:57:21.087Z,74.26
2018-12-04T04:58:20.993Z,73.59
2018-12-04T04:59:21.015Z,73.69
2018-12-04T05:00:20.795Z,73.30
2018-12-04T05:01:20.695Z,73.59
2018-12-04T05:02:20.601Z,73.49
2018-12-04T05:03:20.509Z,73.49
2018-12-04T05:04:20.419Z,73.11
2018-12-04T05:05:20.306Z,73.30
2018-12-04T05:06:20.314Z,73.02
2018-12-04T05:07:20.114Z,73.59
2018-12-04T05:08:21.181Z,73.21
2018-12-04T05:09:19.936Z,72.64
2018-12-04T05:10:19.829Z,72.26
2018-12-04T05:11:19.720Z,72.55
2018-12-04T05:12:19.627Z,72.64
2018-12-04T05:13:19.631Z,72.83
2018-12-04T05:14:19.428Z,72.16
2018-12-04T05:15:19.345Z,71.88
2018-12-04T05:16:19.234Z,71.88
2018-12-04T05:17:19.134Z,72.16
2018-12-04T05:18:19.041Z,71.59
2018-12-04T05:19:18.936Z,71.97
2018-12-04T05:20:18.964Z,71.59
2018-12-04T05:21:18.743Z,71.22
2018-12-04T05:22:18.647Z,71.31
2018-12-04T05:23:18.603Z,71.02
2018-12-04T05:24:18.452Z,71.02
2018-12-04T05:25:18.372Z,71.02
2018-12-04T05:26:18.385Z,70.64
2018-12-04T05:27:18.158Z,70.17
2018-12-04T05:28:18.059Z,70.17
2018-12-04T05:29:17.961Z,69.50
2018-12-04T05:30:17.882Z,69.79
2018-12-04T05:31:17.765Z,69.69
2018-12-04T05:32:17.666Z,69.41
2018-12-04T05:33:17.569Z,69.02
2018-12-04T05:34:17.475Z,68.46
2018-12-04T05:35:17.396Z,68.46
2018-12-04T05:36:17.277Z,68.17
2018-12-04T05:37:17.186Z,67.50
2018-12-04T05:38:17.127Z,67.32
2018-12-04T05:39:16.981Z,66.94
2018-12-04T05:40:16.905Z,66.65
2018-12-04T05:41:16.790Z,65.99
2018-12-04T05:42:16.687Z,65.80
2018-12-04T05:43:16.595Z,65.70
2018-12-04T05:44:16.494Z,65.99
2018-12-04T05:45:16.414Z,65.99
2018-12-04T05:46:16.298Z,66.46
2018-12-04T05:47:16.202Z,67.03
2018-12-04T05:48:16.102Z,67.03
2018-12-04T05:49:16.004Z,66.84
2018-12-04T05:50:15.923Z,66.65
2018-12-04T05:51:15.807Z,66.94
2018-12-04T05:52:15.710Z,66.08
2018-12-04T05:53:15.611Z,67.94
2018-12-04T05:54:15.515Z,71.37
2018-12-04T05:55:15.435Z,72.41
2018-12-04T05:56:15.320Z,72.99
2018-12-04T05:57:15.220Z,73.71
2018-12-04T05:58:15.123Z,74.08
2018-12-04T05:59:15.023Z,73.61
2018-12-04T06:00:14.944Z,73.80
2018-12-04T06:01:14.827Z,72.75
2018-12-04T06:02:14.729Z,72.09
2018-12-04T06:03:14.630Z,71.62
2018-12-04T06:04:14.532Z,71.04
2018-12-04T06:05:14.450Z,70.48
2018-12-04T06:06:14.337Z,69.43
2018-12-04T06:07:14.238Z,68.96
2018-12-04T06:08:14.152Z,68.29
2018-12-04T06:09:14.045Z,67.53
2018-12-04T06:10:13.959Z,66.67
2018-12-04T06:11:13.843Z,65.92
2018-12-04T06:12:13.748Z,65.54
2018-12-04T06:13:13.647Z,64.62
2018-12-04T06:14:13.548Z,64.34
2018-12-04T06:15:13.462Z,63.95
2018-12-04T06:16:13.352Z,63.29
2018-12-04T06:17:13.252Z,63.26
2018-12-04T06:18:13.155Z,62.72
2018-12-04T06:19:13.054Z,62.43
2018-12-04T06:20:12.975Z,62.05
2018-12-04T06:21:12.865Z,62.62
2018-12-04T06:22:12.761Z,63.26
2018-12-04T06:23:12.660Z,64.02
2018-12-04T06:24:12.564Z,63.92
2018-12-04T06:25:12.484Z,64.11
2018-12-04T06:26:12.368Z,64.02
2018-12-04T06:27:12.267Z,64.78
2018-12-04T06:28:12.206Z,65.25
2018-12-04T06:29:12.187Z,66.87
2018-12-04T06:30:11.988Z,68.58
2018-12-04T06:31:11.877Z,69.71
2018-12-04T06:32:11.776Z,71.62
2018-12-04T06:33:11.675Z,72.56
2018-12-04T06:34:11.581Z,73.14
2018-12-04T06:35:11.495Z,73.48
2018-12-04T06:36:11.484Z,73.86
2018-12-04T06:37:11.283Z,74.05
2018-12-04T06:38:11.185Z,74.43
2018-12-04T06:39:11.081Z,74.62
2018-12-04T06:40:11.001Z,74.15
2018-12-04T06:41:10.890Z,73.86
2018-12-04T06:42:10.788Z,73.67
2018-12-04T06:43:10.802Z,73.57
2018-12-04T06:44:10.591Z,73.00
2018-12-04T06:45:10.507Z,73.38
2018-12-04T06:46:10.394Z,72.91
2018-12-04T06:47:10.292Z,72.81
2018-12-04T06:48:10.196Z,72.63
2018-12-04T06:49:10.096Z,72.34
2018-12-04T06:50:10.119Z,72.34
2018-12-04T06:51:09.896Z,71.77
2018-12-04T06:52:09.797Z,71.20
2018-12-04T06:53:09.697Z,71.01
2018-12-04T06:54:09.597Z,71.01
2018-12-04T06:55:09.515Z,70.35
2018-12-04T06:56:09.403Z,69.87
2018-12-04T06:57:09.416Z,70.06
2018-12-04T06:58:09.204Z,69.40
2018-12-04T06:59:09.106Z,69.30
2018-12-04T07:00:09.005Z,69.02
2018-12-04T07:01:08.926Z,69.21
2018-12-04T07:02:08.807Z,69.59
2018-12-04T07:03:08.706Z,69.40
2018-12-04T07:04:08.714Z,69.11
2018-12-04T07:05:08.523Z,70.25
2018-12-04T07:06:08.409Z,69.40
2018-12-04T07:07:08.311Z,69.78
2018-12-04T07:08:08.210Z,69.96
2018-12-04T07:09:08.112Z,69.87
2018-12-04T07:10:08.019Z,69.96
2018-12-04T07:11:08.033Z,69.96
2018-12-04T07:12:07.814Z,70.73
2018-12-04T07:13:07.715Z,70.82
2018-12-04T07:14:07.617Z,71.01
2018-12-04T07:15:07.527Z,70.73
2018-12-04T07:16:07.457Z,70.92
2018-12-04T07:17:07.317Z,71.01
2018-12-04T07:18:07.219Z,71.58
2018-12-04T07:19:07.122Z,71.39
2018-12-04T07:20:07.023Z,70.82
2018-12-04T07:21:06.940Z,70.82
2018-12-04T07:22:06.821Z,71.01
2018-12-04T07:23:06.721Z,72.15
2018-12-04T07:24:06.623Z,72.02
2018-12-04T07:25:06.526Z,72.30
2018-12-04T07:26:06.798Z,73.92
2018-12-04T07:27:06.324Z,73.54
2018-12-04T07:28:06.225Z,73.72
2018-12-04T07:29:06.128Z,73.63
2018-12-04T07:30:06.027Z,73.44
2018-12-04T07:31:05.942Z,73.07
2018-12-04T07:32:05.828Z,72.78
2018-12-04T07:33:05.829Z,72.88
2018-12-04T07:34:05.628Z,72.78
2018-12-04T07:35:05.528Z,72.97
2018-12-04T07:36:05.448Z,72.97
2018-12-04T07:37:05.332Z,73.16
2018-12-04T07:38:05.231Z,73.16
2018-12-04T07:39:05.136Z,72.97
2018-12-04T07:40:05.031Z,73.35
2018-12-04T07:41:04.949Z,73.07
2018-12-04T07:42:04.834Z,73.16
2018-12-04T07:43:04.733Z,72.78
2018-12-04T07:44:04.634Z,73.16
2018-12-04T07:45:04.534Z,73.35
2018-12-04T07:46:04.453Z,72.88
2018-12-04T07:47:04.448Z,72.88
2018-12-04T07:48:04.241Z,73.07
2018-12-04T07:49:04.140Z,72.78
2018-12-04T07:50:04.039Z,73.25
2018-12-04T07:51:03.956Z,73.16
2018-12-04T07:52:03.839Z,73.63
2018-12-04T07:53:03.872Z,73.25
2018-12-04T07:54:03.642Z,73.44
2018-12-04T07:55:03.544Z,73.44
2018-12-04T07:56:03.459Z,73.07
2018-12-04T07:57:03.345Z,72.78
2018-12-04T07:58:03.246Z,73.44
2018-12-04T07:59:03.144Z,73.25
2018-12-04T08:00:03.046Z,72.68
2018-12-04T08:01:02.962Z,73.44
2018-12-04T08:02:02.846Z,73.25
2018-12-04T08:03:02.747Z,72.97
2018-12-04T08:04:02.650Z,72.97
2018-12-04T08:05:02.549Z,72.78
2018-12-04T08:06:02.466Z,72.97
2018-12-04T08:07:02.351Z,72.68
2018-12-04T08:08:02.250Z,73.44
2018-12-04T08:09:02.153Z,72.97
2018-12-04T08:10:02.056Z,73.44
2018-12-04T08:11:01.969Z,73.25
2018-12-04T08:12:01.854Z,73.44
2018-12-04T08:13:01.755Z,73.44
2018-12-04T08:14:01.655Z,72.78
2018-12-04T08:15:01.557Z,73.16
2018-12-04T08:16:01.474Z,73.00
2018-12-04T08:17:01.359Z,73.19
2018-12-04T08:18:01.262Z,73.57
2018-12-04T08:19:01.159Z,73.19
2018-12-04T08:20:01.059Z,73.57
2018-12-04T08:21:00.977Z,73.96
2018-12-04T08:22:00.873Z,74.33
2018-12-04T08:23:00.762Z,74.24
2018-12-04T08:24:00.664Z,74.43
2018-12-04T08:25:00.565Z,74.52
2018-12-04T08:26:00.482Z,75.19
2018-12-04T08:27:00.365Z,75.57
2018-12-04T08:28:00.274Z,75.57
2018-12-04T08:29:00.168Z,75.85
2018-12-04T08:30:00.070Z,75.76
2018-12-04T08:30:59.988Z,75.76
2018-12-04T08:31:59.874Z,75.67
2018-12-04T08:32:59.773Z,76.32
2018-12-04T08:33:59.674Z,75.57
2018-12-04T08:34:59.577Z,75.57
2018-12-04T08:35:59.492Z,76.04
2018-12-04T08:36:59.378Z,75.67
2018-12-04T08:37:59.279Z,75.62
2018-12-04T08:38:59.179Z,75.91
2018-12-04T08:39:59.080Z,75.72
2018-12-04T08:40:59.001Z,75.72
2018-12-04T08:41:58.884Z,75.72
2018-12-04T08:42:58.782Z,75.34
2018-12-04T08:43:58.689Z,75.81
2018-12-04T08:44:58.591Z,76.39
2018-12-04T08:45:58.491Z,76.01
2018-12-04T08:46:58.404Z,75.43
2018-12-04T08:47:58.288Z,76.01
2018-12-04T08:48:58.190Z,75.81
2018-12-04T08:49:58.090Z,76.29
2018-12-04T08:50:57.993Z,76.39
2018-12-04T08:51:57.908Z,76.01
2018-12-04T08:52:57.792Z,75.62
2018-12-04T08:53:57.694Z,76.39
2018-12-04T08:54:57.594Z,75.91
2018-12-04T08:55:57.602Z,75.53
2018-12-04T08:56:57.411Z,75.53
2018-12-04T08:57:57.298Z,75.62
2018-12-04T08:58:57.197Z,75.72
2018-12-04T08:59:57.101Z,75.91
2018-12-04T09:00:57.005Z,76.20
2018-12-04T09:01:56.917Z,76.01
2018-12-04T09:02:56.808Z,76.67
2018-12-04T09:03:59.179Z,76.67
2018-12-04T09:04:56.602Z,76.39
2018-12-04T09:05:56.507Z,76.01
2018-12-04T09:06:56.445Z,75.91
2018-12-04T09:07:56.304Z,76.48
2018-12-04T09:08:56.291Z,76.76
2018-12-04T09:09:56.210Z,76.76
2018-12-04T09:10:56.009Z,76.76
2018-12-04T09:11:55.923Z,76.67
2018-12-04T09:12:55.808Z,76.76
2018-12-04T09:13:55.713Z,77.14
2018-12-04T09:14:55.607Z,76.76
2018-12-04T09:15:55.510Z,76.57
2018-12-04T09:16:55.541Z,77.14
2018-12-04T09:17:55.310Z,77.62
2018-12-04T09:18:55.224Z,77.52
2018-12-04T09:19:55.130Z,77.43
2018-12-04T09:20:55.030Z,77.14
2018-12-04T09:21:54.978Z,77.24
2018-12-04T09:22:54.813Z,77.81
2018-12-04T09:23:54.743Z,79.17
2018-12-04T09:24:54.633Z,81.02
2018-12-04T09:25:54.533Z,82.82
2018-12-04T09:26:54.470Z,83.11
2018-12-04T09:27:55.713Z,83.39
2018-12-04T09:28:54.238Z,83.78
2018-12-04T09:29:54.168Z,84.72
2018-12-04T09:30:54.136Z,85.72
2018-12-04T09:31:53.943Z,90.04
2018-12-04T09:32:53.826Z,92.85
2018-12-04T09:33:53.762Z,93.04
2018-12-04T09:34:53.629Z,92.85
2018-12-04T09:35:53.530Z,93.51
2018-12-04T09:36:53.454Z,92.99
2018-12-04T09:37:53.437Z,92.61
2018-12-04T09:38:53.237Z,91.85
2018-12-04T09:39:53.139Z,92.42
2018-12-04T09:40:53.041Z,92.61
2018-12-04T09:41:52.963Z,92.04
2018-12-04T09:42:52.847Z,91.04
2018-12-04T09:43:52.754Z,91.52
2018-12-04T09:44:52.760Z,90.57
2018-12-04T09:45:52.555Z,91.14
2018-12-04T09:46:52.474Z,90.28
2018-12-04T09:47:52.358Z,90.47
2018-12-04T09:48:52.263Z,89.72
2018-12-04T09:49:52.182Z,90.19
2018-12-04T09:50:52.070Z,89.62
2018-12-04T09:51:52.093Z,89.43
2018-12-04T09:52:51.871Z,89.05
2018-12-04T09:53:52.165Z,89.24
2018-12-04T09:54:51.674Z,88.67
2018-12-04T09:55:51.578Z,89.05
2018-12-04T09:56:51.503Z,88.48
2018-12-04T09:57:51.382Z,89.05
2018-12-04T09:58:51.415Z,88.95
2018-12-04T09:59:51.187Z,88.57
2018-12-04T10:00:51.093Z,89.47
2018-12-04T10:01:51.010Z,88.76
2018-12-04T10:02:50.893Z,89.05
2018-12-04T10:03:50.799Z,89.76
2018-12-04T10:04:50.697Z,89.95
2018-12-04T10:05:50.702Z,89.76
2018-12-04T10:06:50.518Z,89.38
2018-12-04T10:07:50.402Z,91.42
2018-12-04T10:08:50.308Z,91.80
2018-12-04T10:09:50.212Z,91.80
2018-12-04T10:10:50.111Z,91.28
2018-12-04T10:11:50.031Z,91.75
2018-12-04T10:12:50.075Z,90.99
2018-12-04T10:13:49.818Z,91.28
2018-12-04T10:14:49.720Z,93.89
2018-12-04T10:15:49.625Z,91.99
2018-12-04T10:16:49.541Z,93.79
2018-12-04T10:17:49.443Z,95.41
2018-12-04T10:18:49.331Z,94.23
2018-12-04T10:19:49.356Z,94.84
2018-12-04T10:20:49.140Z,94.03
2018-12-04T10:21:49.057Z,94.84
2018-12-04T10:22:48.942Z,97.74
2018-12-04T10:23:48.845Z,98.60
2018-12-04T10:24:48.752Z,99.99
2018-12-04T10:25:48.781Z,99.99
2018-12-04T10:26:48.556Z,99.99
2018-12-04T10:27:48.476Z,99.99
2018-12-04T10:28:48.364Z,99.99
2018-12-04T10:29:48.266Z,99.99
2018-12-04T10:30:48.169Z,99.99
2018-12-04T10:31:48.093Z,99.99
2018-12-04T10:32:47.980Z,99.99
2018-12-04T10:33:47.881Z,99.99
2018-12-04T10:34:47.783Z,99.99
2018-12-04T10:35:47.687Z,99.99
2018-12-04T10:36:47.599Z,99.99
2018-12-04T10:37:47.512Z,99.99
2018-12-04T10:38:47.415Z,99.99
2018-12-04T10:39:47.305Z,99.99
2018-12-04T10:40:47.214Z,99.99
2018-12-04T10:41:47.115Z,99.99
2018-12-04T10:42:47.035Z,99.99
2018-12-04T10:43:46.963Z,99.99
2018-12-04T10:44:46.830Z,99.99
2018-12-04T10:45:46.735Z,99.99
2018-12-04T10:46:46.642Z,99.99
2018-12-04T10:47:46.582Z,99.99
2018-12-04T10:48:46.450Z,99.99
2018-12-04T10:49:46.352Z,99.99
2018-12-04T10:50:46.258Z,99.99
2018-12-04T10:51:46.164Z,99.99
2018-12-04T10:52:46.083Z,99.99
2018-12-04T10:53:45.971Z,99.99
2018-12-04T10:54:45.882Z,99.99
2018-12-04T10:55:45.781Z,99.99
2018-12-04T10:56:45.687Z,99.99
2018-12-04T10:57:45.605Z,99.99
2018-12-04T10:58:45.491Z,99.99
2018-12-04T10:59:45.394Z,99.99
2018-12-04T11:00:45.303Z,99.99
2018-12-04T11:01:45.206Z,99.99
2018-12-04T11:02:45.125Z,99.21
2018-12-04T11:03:45.009Z,98.45
2018-12-04T11:04:44.914Z,97.69
2018-12-04T11:05:44.816Z,98.83
2018-12-04T11:06:44.719Z,98.26
2018-12-04T11:07:44.638Z,97.88
2018-12-04T11:08:44.530Z,97.60
2018-12-04T11:09:44.428Z,96.36
2018-12-04T11:10:44.332Z,94.65
2018-12-04T11:11:44.232Z,94.93
2018-12-04T11:12:44.153Z,94.84
2018-12-04T11:13:44.038Z,94.79
2018-12-04T11:14:43.939Z,94.70
2018-12-04T11:15:43.841Z,94.03
2018-12-04T11:16:43.745Z,94.03
2018-12-04T11:17:43.666Z,94.23
2018-12-04T11:18:43.549Z,94.23
2018-12-04T11:19:43.450Z,93.94
2018-12-04T11:20:43.353Z,94.23
2018-12-04T11:21:43.255Z,93.56
2018-12-04T11:22:43.173Z,93.75
2018-12-04T11:23:43.061Z,92.99
2018-12-04T11:24:42.961Z,93.37
2018-12-04T11:25:42.863Z,93.27
2018-12-04T11:26:42.765Z,92.71
2018-12-04T11:27:42.683Z,93.37
2018-12-04T11:28:42.572Z,92.42
2018-12-04T11:29:42.469Z,92.33
2018-12-04T11:30:42.373Z,92.90
2018-12-04T11:31:42.275Z,92.61
2018-12-04T11:32:42.195Z,91.94
2018-12-04T11:33:42.075Z,92.71
2018-12-04T11:34:41.977Z,92.80
2018-12-04T11:35:41.882Z,91.75
2018-12-04T11:36:41.781Z,92.33
2018-12-04T11:37:41.699Z,91.66
2018-12-04T11:38:41.582Z,92.04
2018-12-04T11:39:41.484Z,92.04
2018-12-04T11:40:41.385Z,91.94
2018-12-04T11:41:41.286Z,92.04
2018-12-04T11:42:41.313Z,91.85
2018-12-04T11:43:41.089Z,91.94
2018-12-04T11:44:40.990Z,91.75
2018-12-04T11:45:40.894Z,91.94
2018-12-04T11:46:40.792Z,92.14
2018-12-04T11:47:40.710Z,91.38
2018-12-04T11:48:40.596Z,91.85
2018-12-04T11:49:40.599Z,91.19
2018-12-04T11:50:40.397Z,91.19
2018-12-04T11:51:40.298Z,91.09
2018-12-04T11:52:40.217Z,91.47
2018-12-04T11:53:40.101Z,91.28
2018-12-04T11:54:40.002Z,91.19
2018-12-04T11:55:40.980Z,92.04
2018-12-04T11:56:39.925Z,91.38
2018-12-04T11:57:39.723Z,91.00
2018-12-04T11:58:39.606Z,91.94
2018-12-04T11:59:39.509Z,91.00
2018-12-04T12:00:39.409Z,91.85
2018-12-04T12:01:39.311Z,91.09
2018-12-04T12:02:39.228Z,91.66
2018-12-04T12:03:39.219Z,91.19
2018-12-04T12:04:39.019Z,91.19
2018-12-04T12:05:38.916Z,91.38
2018-12-04T12:06:38.821Z,91.38
2018-12-04T12:07:38.734Z,91.38
2018-12-04T12:08:38.617Z,91.85
2018-12-04T12:09:38.519Z,91.38
2018-12-04T12:10:38.526Z,91.94
2018-12-04T12:11:38.339Z,91.75
2018-12-04T12:12:38.241Z,91.66
2018-12-04T12:13:38.130Z,91.56
2018-12-04T12:14:38.026Z,91.00
2018-12-04T12:15:37.939Z,91.38
2018-12-04T12:16:37.829Z,91.75
2018-12-04T12:17:37.853Z,91.75
2018-12-04T12:18:37.633Z,91.47
2018-12-04T12:19:37.533Z,91.94
2018-12-04T12:20:37.435Z,91.56
2018-12-04T12:21:37.335Z,91.66
2018-12-04T12:22:37.240Z,91.56
2018-12-04T12:23:37.152Z,91.66
2018-12-04T12:24:37.143Z,91.56
2018-12-04T12:25:36.940Z,91.47
2018-12-04T12:26:36.840Z,91.94
2018-12-04T12:27:36.744Z,91.75
2018-12-04T12:28:36.663Z,91.42
2018-12-04T12:29:36.546Z,91.90
2018-12-04T12:30:36.449Z,91.99
2018-12-04T12:31:36.350Z,91.61
2018-12-04T12:32:36.250Z,92.57
2018-12-04T12:33:36.169Z,91.80
2018-12-04T12:34:36.054Z,92.18
2018-12-04T12:35:35.953Z,91.61
2018-12-04T12:36:35.855Z,91.90
2018-12-04T12:37:35.760Z,92.47
2018-12-04T12:38:35.671Z,92.38
2018-12-04T12:39:35.556Z,92.28
2018-12-04T12:40:35.456Z,92.28
2018-12-04T12:41:35.359Z,92.57
2018-12-04T12:42:35.265Z,92.47
2018-12-04T12:43:35.175Z,93.04
2018-12-04T12:44:35.063Z,92.94
2018-12-04T12:45:34.964Z,93.61
2018-12-04T12:46:34.863Z,93.70
2018-12-04T12:47:34.763Z,94.08
2018-12-04T12:48:34.679Z,93.61
2018-12-04T12:49:34.562Z,93.89
2018-12-04T12:50:34.466Z,93.84
2018-12-04T12:51:34.370Z,93.94